Time;durP1;ratioP1;P1;durP2;ratioP2;P2;SDS_P1;SDS_P2;PMS_P1;PMS_P2;Temp;Humidity;BMP_temperature;BMP_pressure;BME280_temperature;BME280_humidity;BME280_pressure;Samples;Min_cycle;Max_cycle;Signal;HPM_P1;HPM_P2
2023/08/29 00:01:20;;;;;;;2.00;1.90;;;17.60;99.90;;;;;;5086965;28;20241;-66
2023/08/29 00:03:47;;;;;;;3.07;1.93;;;17.60;99.90;;;;;;5070493;28;20290;-66
2023/08/29 00:06:14;;;;;;;2.50;2.03;;;17.60;99.90;;;;;;5067118;28;20213;-66
2023/08/29 00:08:41;;;;;;;1.90;1.80;;;17.50;99.90;;;;;;5066891;28;20302;-66
2023/08/29 00:11:08;;;;;;;2.40;2.20;;;17.50;99.90;;;;;;5067147;28;20290;-66
2023/08/29 00:13:36;;;;;;;2.40;2.00;;;17.50;99.90;;;;;;5067150;28;20208;-66
2023/08/29 00:16:04;;;;;;;2.57;2.13;;;17.50;99.90;;;;;;5066683;28;20281;-66
2023/08/29 00:18:31;;;;;;;3.23;2.10;;;17.40;99.90;;;;;;5067226;28;20215;-66
2023/08/29 00:20:58;;;;;;;2.30;2.10;;;17.40;99.90;;;;;;5066327;28;20661;-66
2023/08/29 00:23:25;;;;;;;2.97;2.30;;;17.40;99.90;;;;;;5066061;28;20233;-66
2023/08/29 00:25:52;;;;;;;2.27;1.80;;;17.40;99.90;;;;;;5066443;28;20203;-66
2023/08/29 00:28:19;;;;;;;2.87;2.30;;;17.40;99.90;;;;;;5066591;28;20299;-66
2023/08/29 00:30:47;;;;;;;2.20;2.10;;;17.30;99.90;;;;;;5071389;28;20203;-66
2023/08/29 00:33:14;;;;;;;2.73;2.13;;;17.30;99.90;;;;;;5078633;28;20282;-66
2023/08/29 00:35:41;;;;;;;3.23;2.30;;;17.30;99.90;;;;;;5086298;28;20329;-66
2023/08/29 00:38:10;;;;;;;2.17;2.00;;;17.30;99.90;;;;;;5086216;28;20213;-66
2023/08/29 00:40:37;;;;;;;2.20;2.00;;;17.30;99.90;;;;;;5084550;28;20298;-66
2023/08/29 00:43:04;;;;;;;2.97;2.27;;;17.30;99.90;;;;;;5080686;28;20290;-66
2023/08/29 00:45:33;;;;;;;3.20;2.30;;;17.30;99.90;;;;;;5086598;28;20223;-66
2023/08/29 00:48:02;;;;;;;2.00;1.90;;;17.30;99.90;;;;;;5086053;28;20202;-66
2023/08/29 00:50:30;;;;;;;2.13;2.00;;;17.30;99.90;;;;;;5086506;28;20289;-66
2023/08/29 00:53:00;;;;;;;2.20;2.10;;;17.30;99.90;;;;;;5077291;28;20678;-66
2023/08/29 00:55:27;;;;;;;1.93;1.83;;;17.30;99.90;;;;;;5086223;28;20211;-66
2023/08/29 00:57:56;;;;;;;2.37;2.10;;;17.30;99.90;;;;;;5072325;28;20327;-67
2023/08/29 01:00:24;;;;;;;3.03;2.00;;;17.30;99.90;;;;;;5065752;28;20239;-67
2023/08/29 01:02:50;;;;;;;2.17;2.00;;;17.30;99.90;;;;;;5066848;28;20294;-67
2023/08/29 01:05:20;;;;;;;2.53;2.10;;;17.30;99.90;;;;;;5066583;28;20308;-67
2023/08/29 01:07:47;;;;;;;3.00;1.80;;;17.40;99.90;;;;;;5066314;28;20204;-67
2023/08/29 01:10:14;;;;;;;2.00;1.90;;;17.30;99.90;;;;;;5066754;28;20290;-67
2023/08/29 01:12:49;;;;;;;2.30;2.10;;;17.30;99.90;;;;;;5104328;28;20304;-67
2023/08/29 01:15:22;;;;;;;2.40;2.17;;;17.30;99.90;;;;;;5085132;28;20194;-67
2023/08/29 01:17:54;;;;;;;2.40;2.30;;;17.30;99.90;;;;;;5074967;28;20295;-67
2023/08/29 01:20:24;;;;;;;2.87;2.00;;;17.30;99.90;;;;;;5065832;28;20291;-67
2023/08/29 01:23:03;;;;;;;2.40;2.20;;;17.30;99.90;;;;;;5065129;28;20238;-66
2023/08/29 01:25:52;;;;;;;3.47;2.43;;;17.30;99.90;;;;;;5071028;28;20277;-67
2023/08/29 01:28:21;;;;;;;2.70;2.30;;;17.30;99.90;;;;;;5073432;28;20298;-67
2023/08/29 01:30:49;;;;;;;2.47;2.27;;;17.30;99.90;;;;;;5071379;28;20207;-67
2023/08/29 01:33:16;;;;;;;2.80;2.30;;;17.30;99.90;;;;;;5085813;28;20301;-67
2023/08/29 01:35:45;;;;;;;2.60;2.10;;;17.30;99.90;;;;;;5080924;28;20230;-67
2023/08/29 01:38:12;;;;;;;3.17;2.87;;;17.30;99.90;;;;;;5073786;28;20289;-68
2023/08/29 01:40:39;;;;;;;2.50;2.23;;;17.30;99.90;;;;;;5084159;28;20254;-67
2023/08/29 01:43:06;;;;;;;2.63;2.40;;;17.30;99.90;;;;;;5065795;28;20291;-67
2023/08/29 01:45:34;;;;;;;2.80;2.60;;;17.30;99.90;;;;;;5065522;28;20207;-67
2023/08/29 01:48:01;;;;;;;3.13;2.83;;;17.30;99.90;;;;;;5065558;28;20207;-66
2023/08/29 01:50:30;;;;;;;2.90;2.70;;;17.30;99.90;;;;;;5078151;28;21105;-67
2023/08/29 01:52:57;;;;;;;2.80;2.60;;;17.30;99.90;;;;;;5085148;28;20983;-66
2023/08/29 01:55:25;;;;;;;3.20;2.47;;;17.20;99.90;;;;;;5084802;28;20201;-66
2023/08/29 01:57:52;;;;;;;2.60;2.30;;;17.20;99.90;;;;;;5084838;28;20226;-67
2023/08/29 02:00:20;;;;;;;2.70;2.50;;;17.20;99.90;;;;;;5085022;28;20614;-66
2023/08/29 02:02:48;;;;;;;3.60;2.00;;;17.10;99.90;;;;;;5070690;28;21034;-67
2023/08/29 02:05:15;;;;;;;2.30;2.10;;;17.20;99.90;;;;;;5064932;28;20294;-66
2023/08/29 02:07:42;;;;;;;1.93;1.77;;;17.20;99.90;;;;;;5064560;28;20317;-66
2023/08/29 02:10:10;;;;;;;2.80;2.10;;;17.20;99.90;;;;;;5064700;28;20242;-66
2023/08/29 02:12:37;;;;;;;3.43;1.90;;;17.20;99.90;;;;;;5071262;28;20657;-67
2023/08/29 02:15:05;;;;;;;2.60;1.67;;;17.30;99.90;;;;;;5084465;28;20205;-66
2023/08/29 02:17:32;;;;;;;3.30;1.60;;;17.30;99.90;;;;;;5084559;28;20680;-66
2023/08/29 02:20:01;;;;;;;2.13;1.77;;;17.30;99.90;;;;;;5085278;28;20229;-66
2023/08/29 02:22:30;;;;;;;1.80;1.70;;;17.30;99.90;;;;;;5084763;28;20237;-66
2023/08/29 02:24:57;;;;;;;2.93;1.70;;;17.30;99.90;;;;;;5084936;28;20293;-66
2023/08/29 02:27:24;;;;;;;1.90;1.60;;;17.30;99.90;;;;;;5068481;28;20225;-66
2023/08/29 02:29:51;;;;;;;3.00;1.57;;;17.30;99.90;;;;;;5064614;28;20298;-66
2023/08/29 02:32:18;;;;;;;1.77;1.67;;;17.30;99.90;;;;;;5064865;28;20207;-66
2023/08/29 02:34:45;;;;;;;1.33;1.23;;;17.20;99.90;;;;;;5065128;28;20754;-66
2023/08/29 02:37:15;;;;;;;2.03;1.53;;;17.30;99.90;;;;;;5064374;28;21156;-66
2023/08/29 02:39:41;;;;;;;1.80;1.70;;;17.20;99.90;;;;;;5068570;28;20204;-66
2023/08/29 02:42:08;;;;;;;1.63;1.43;;;17.20;99.90;;;;;;5064208;28;20215;-66
2023/08/29 02:44:35;;;;;;;2.53;1.50;;;17.20;99.90;;;;;;5064273;28;20733;-66
2023/08/29 02:47:02;;;;;;;2.10;1.60;;;17.20;99.90;;;;;;5064196;28;20306;-66
2023/08/29 02:49:30;;;;;;;1.20;1.13;;;17.20;99.90;;;;;;5063951;28;20276;-66
2023/08/29 02:51:58;;;;;;;1.47;1.30;;;17.20;99.90;;;;;;5081718;28;20207;-66
2023/08/29 02:54:26;;;;;;;2.80;1.30;;;17.20;99.90;;;;;;5084658;28;20297;-66
2023/08/29 02:56:53;;;;;;;1.17;1.07;;;17.20;99.90;;;;;;5084511;28;20669;-66
2023/08/29 02:59:20;;;;;;;1.73;1.43;;;17.20;99.90;;;;;;5083706;28;20282;-67
2023/08/29 03:01:47;;;;;;;1.97;1.10;;;17.10;99.90;;;;;;5084553;28;20285;-66
2023/08/29 03:04:14;;;;;;;1.97;1.27;;;17.10;99.90;;;;;;5068049;28;20287;-66
2023/08/29 03:06:41;;;;;;;1.23;1.10;;;17.10;99.90;;;;;;5067946;28;20214;-66
2023/08/29 03:09:08;;;;;;;2.87;1.40;;;17.10;99.90;;;;;;5076678;28;20215;-66
2023/08/29 03:11:36;;;;;;;1.70;1.60;;;17.20;99.90;;;;;;5081276;28;20764;-67
2023/08/29 03:14:03;;;;;;;1.10;1.10;;;17.20;99.90;;;;;;5087574;28;20289;-66
2023/08/29 03:16:30;;;;;;;3.90;1.40;;;17.10;99.90;;;;;;5088210;28;20240;-66
2023/08/29 03:18:57;;;;;;;2.07;1.40;;;17.20;99.90;;;;;;5087805;28;20848;-66
2023/08/29 03:21:24;;;;;;;1.90;1.20;;;17.20;99.90;;;;;;5087448;28;20229;-66
2023/08/29 03:23:51;;;;;;;1.97;1.30;;;17.20;99.90;;;;;;5074549;28;20210;-66
2023/08/29 03:26:18;;;;;;;1.23;1.13;;;17.20;99.90;;;;;;5086311;28;20345;-66
2023/08/29 03:28:46;;;;;;;1.10;1.10;;;17.10;99.90;;;;;;5086278;28;20320;-66
2023/08/29 03:31:14;;;;;;;1.30;1.20;;;17.10;99.90;;;;;;5085988;28;20207;-66
2023/08/29 03:33:42;;;;;;;1.50;1.27;;;17.10;99.90;;;;;;5085860;28;20301;-66
2023/08/29 03:36:09;;;;;;;1.50;1.40;;;17.10;99.90;;;;;;5084914;28;20294;-66
2023/08/29 03:38:37;;;;;;;1.77;1.30;;;17.00;99.90;;;;;;5065647;28;20253;-66
2023/08/29 03:41:04;;;;;;;1.17;1.10;;;17.00;99.90;;;;;;5076873;28;20317;-66
2023/08/29 03:43:34;;;;;;;1.00;0.90;;;17.10;99.90;;;;;;5106234;28;20202;-66
2023/08/29 03:46:03;;;;;;;2.43;1.40;;;17.00;99.90;;;;;;5078014;28;20203;-66
2023/08/29 03:48:31;;;;;;;1.30;1.20;;;17.00;99.90;;;;;;5066025;28;20223;-66
2023/08/29 03:50:59;;;;;;;1.20;0.93;;;17.10;99.90;;;;;;5074961;28;20206;-66
2023/08/29 03:53:26;;;;;;;1.20;1.13;;;17.00;99.90;;;;;;5085707;28;20215;-66
2023/08/29 03:55:53;;;;;;;1.30;1.20;;;17.00;99.90;;;;;;5085548;28;20211;-66
2023/08/29 03:58:20;;;;;;;2.13;1.30;;;17.00;99.90;;;;;;5085539;28;20624;-66
2023/08/29 04:00:46;;;;;;;1.47;1.20;;;17.00;99.90;;;;;;5079013;28;20709;-66
2023/08/29 04:03:15;;;;;;;1.30;1.20;;;17.00;99.90;;;;;;5086667;28;21068;-66
2023/08/29 04:05:42;;;;;;;1.30;1.20;;;17.00;99.90;;;;;;5079883;28;20230;-66
2023/08/29 04:08:10;;;;;;;1.43;1.23;;;17.00;99.90;;;;;;5083979;28;20319;-66
2023/08/29 04:10:41;;;;;;;1.27;1.17;;;17.00;99.90;;;;;;5066264;28;20541;-66
2023/08/29 04:13:08;;;;;;;3.37;1.63;;;16.90;99.90;;;;;;5066054;28;20208;-66
2023/08/29 04:15:35;;;;;;;2.50;1.00;;;16.90;99.90;;;;;;5065592;28;20310;-66
2023/08/29 04:18:03;;;;;;;1.87;1.30;;;17.00;99.90;;;;;;5065828;28;20330;-66
2023/08/29 04:20:32;;;;;;;2.43;1.40;;;16.90;99.90;;;;;;5076359;28;20208;-66
2023/08/29 04:23:02;;;;;;;5.37;1.70;;;16.90;99.90;;;;;;5068792;28;20230;-66
2023/08/29 04:25:30;;;;;;;1.40;1.30;;;16.90;99.90;;;;;;5074866;28;20223;-66
2023/08/29 04:27:57;;;;;;;1.80;1.30;;;16.90;99.90;;;;;;5065322;28;20646;-66
2023/08/29 04:30:24;;;;;;;1.70;1.20;;;16.90;99.90;;;;;;5065410;28;20199;-66
2023/08/29 04:32:51;;;;;;;3.20;1.20;;;16.90;99.90;;;;;;5065212;28;20725;-66
2023/08/29 04:35:19;;;;;;;2.03;1.30;;;16.90;99.90;;;;;;5065746;28;20250;-66
2023/08/29 04:37:48;;;;;;;3.13;1.37;;;16.80;99.90;;;;;;5065200;28;20839;-66
2023/08/29 04:40:16;;;;;;;1.33;1.33;;;16.90;99.90;;;;;;5066223;28;20273;-66
2023/08/29 04:42:43;;;;;;;2.27;1.50;;;16.80;99.90;;;;;;5075807;28;20203;-66
2023/08/29 04:45:11;;;;;;;4.17;1.80;;;16.90;99.90;;;;;;5075583;28;20207;-66
2023/08/29 04:47:39;;;;;;;1.60;1.40;;;16.90;99.90;;;;;;5077090;28;20818;-66
2023/08/29 04:50:07;;;;;;;1.30;1.20;;;16.80;99.90;;;;;;5073905;28;20286;-66
2023/08/29 04:52:35;;;;;;;9.90;1.90;;;16.80;99.90;;;;;;5075672;28;20195;-66
2023/08/29 04:55:05;;;;;;;4.50;1.67;;;16.80;99.90;;;;;;5070868;28;20213;-66
2023/08/29 04:57:33;;;;;;;4.20;1.17;;;16.80;99.90;;;;;;5076863;28;20271;-66
2023/08/29 05:00:00;;;;;;;2.07;1.27;;;16.80;99.90;;;;;;5075503;28;20261;-66
2023/08/29 05:02:27;;;;;;;1.60;1.20;;;16.80;99.90;;;;;;5075874;28;20210;-66
2023/08/29 05:04:54;;;;;;;3.70;1.43;;;16.80;99.90;;;;;;5081766;28;20286;-66
2023/08/29 05:07:21;;;;;;;1.30;1.20;;;16.80;99.90;;;;;;5075669;28;20743;-66
2023/08/29 05:09:48;;;;;;;2.13;1.57;;;16.90;99.90;;;;;;5073482;28;20854;-66
2023/08/29 05:12:17;;;;;;;1.20;1.20;;;16.90;99.90;;;;;;5074831;28;20229;-66
2023/08/29 05:14:43;;;;;;;1.37;1.27;;;16.90;99.90;;;;;;5074965;28;20313;-66
2023/08/29 05:17:11;;;;;;;12.70;2.43;;;16.90;99.90;;;;;;5078544;28;20231;-67
2023/08/29 05:19:38;;;;;;;7.70;1.60;;;16.90;99.90;;;;;;5074002;28;20717;-66
2023/08/29 05:22:05;;;;;;;9.00;2.10;;;16.90;99.90;;;;;;5071901;28;20777;-66
2023/08/29 05:24:32;;;;;;;4.67;1.20;;;16.90;99.90;;;;;;5071952;28;20721;-66
2023/08/29 05:26:59;;;;;;;1.40;1.10;;;16.90;99.90;;;;;;5072193;28;20585;-66
2023/08/29 05:29:27;;;;;;;2.57;1.70;;;16.90;99.90;;;;;;5077165;28;20298;-66
2023/08/29 05:31:54;;;;;;;3.03;1.80;;;16.90;99.90;;;;;;5076318;28;20606;-66
2023/08/29 05:34:21;;;;;;;1.90;1.50;;;17.00;99.90;;;;;;5079963;28;20210;-66
2023/08/29 05:36:50;;;;;;;2.93;1.77;;;17.00;99.90;;;;;;5076247;28;20313;-66
2023/08/29 05:39:17;;;;;;;1.90;1.60;;;17.00;99.90;;;;;;5064526;28;20206;-66
2023/08/29 05:41:44;;;;;;;3.03;1.90;;;16.90;99.90;;;;;;5064726;28;20420;-66
2023/08/29 05:44:12;;;;;;;2.13;1.90;;;16.90;99.90;;;;;;5064550;28;20235;-66
2023/08/29 05:46:40;;;;;;;2.23;1.90;;;17.00;99.90;;;;;;5064171;28;20200;-66
2023/08/29 05:49:07;;;;;;;1.57;1.47;;;17.00;99.90;;;;;;5064063;28;20670;-66
2023/08/29 05:51:34;;;;;;;4.33;2.47;;;17.00;99.90;;;;;;5075652;28;20276;-66
2023/08/29 05:54:01;;;;;;;4.70;2.13;;;17.00;99.90;;;;;;5074425;28;20200;-66
2023/08/29 05:56:28;;;;;;;2.90;1.83;;;17.00;99.90;;;;;;5071178;28;20222;-66
2023/08/29 05:58:55;;;;;;;1.93;1.50;;;17.00;99.90;;;;;;5072067;28;20237;-67
2023/08/29 06:01:22;;;;;;;3.00;1.80;;;17.00;99.90;;;;;;5072988;28;20223;-66
2023/08/29 06:03:50;;;;;;;1.70;1.60;;;17.00;99.90;;;;;;5075927;28;20203;-66
2023/08/29 06:06:17;;;;;;;3.23;1.93;;;17.00;99.90;;;;;;5069715;28;20222;-66
2023/08/29 06:08:44;;;;;;;1.90;1.80;;;17.00;99.90;;;;;;5074142;28;20203;-66
2023/08/29 06:11:11;;;;;;;3.57;1.60;;;17.00;99.90;;;;;;5072398;28;20217;-66
2023/08/29 06:13:38;;;;;;;4.27;1.50;;;17.00;99.90;;;;;;5074302;28;20299;-66
2023/08/29 06:16:05;;;;;;;2.23;1.50;;;17.00;99.90;;;;;;5075548;28;20229;-66
2023/08/29 06:18:32;;;;;;;1.80;1.70;;;17.00;99.90;;;;;;5072977;28;20233;-66
2023/08/29 06:21:02;;;;;;;2.93;1.53;;;17.00;99.90;;;;;;5073069;28;20202;-66
2023/08/29 06:23:29;;;;;;;2.40;1.63;;;17.00;99.90;;;;;;5077999;28;20207;-66
2023/08/29 06:25:56;;;;;;;3.20;1.43;;;17.00;99.90;;;;;;5072900;28;20776;-66
2023/08/29 06:28:23;;;;;;;6.90;1.63;;;17.10;99.90;;;;;;5074203;28;20290;-66
2023/08/29 06:30:50;;;;;;;1.73;1.60;;;17.00;99.90;;;;;;5072762;28;20290;-66
2023/08/29 06:33:16;;;;;;;5.40;1.63;;;17.00;99.90;;;;;;5064223;28;20191;-66
2023/08/29 06:35:43;;;;;;;2.57;1.70;;;17.00;99.90;;;;;;5065949;28;20214;-66
2023/08/29 06:38:12;;;;;;;2.57;1.87;;;17.10;99.90;;;;;;5067578;28;20645;-64
2023/08/29 06:40:39;;;;;;;2.13;1.93;;;17.10;99.90;;;;;;5071427;28;20671;-65
2023/08/29 06:43:05;;;;;;;2.17;1.67;;;17.10;99.90;;;;;;5077241;28;20582;-64
2023/08/29 06:45:32;;;;;;;1.83;1.73;;;17.20;99.90;;;;;;5076591;28;20670;-65
2023/08/29 06:47:59;;;;;;;3.60;1.80;;;17.10;99.90;;;;;;5079446;28;20297;-64
2023/08/29 06:50:26;;;;;;;1.60;1.50;;;17.10;99.90;;;;;;5077946;28;20227;-64
2023/08/29 06:52:53;;;;;;;2.00;1.90;;;17.10;99.90;;;;;;5076384;28;20200;-64
2023/08/29 06:55:21;;;;;;;2.43;1.90;;;17.10;99.90;;;;;;5078333;28;20303;-65
2023/08/29 06:57:48;;;;;;;1.87;1.73;;;17.10;99.90;;;;;;5075813;28;20318;-64
2023/08/29 07:00:16;;;;;;;3.17;1.90;;;17.10;99.90;;;;;;5078134;28;20226;-64
2023/08/29 07:02:43;;;;;;;1.73;1.60;;;17.10;99.90;;;;;;5079085;28;20195;-64
2023/08/29 07:05:10;;;;;;;2.00;1.90;;;17.10;99.90;;;;;;5078375;28;20210;-65
2023/08/29 07:07:38;;;;;;;2.70;1.80;;;17.10;99.90;;;;;;5075268;28;20225;-64
2023/08/29 07:10:06;;;;;;;1.93;1.73;;;17.10;99.90;;;;;;5076802;28;20226;-64
2023/08/29 07:12:34;;;;;;;2.97;2.13;;;17.10;99.90;;;;;;5069873;28;20222;-64
2023/08/29 07:15:02;;;;;;;2.93;2.00;;;17.10;99.90;;;;;;5072945;28;20529;-64
2023/08/29 07:17:29;;;;;;;1.90;1.80;;;17.10;99.90;;;;;;5081314;28;20205;-64
2023/08/29 07:19:56;;;;;;;4.03;2.10;;;17.10;99.90;;;;;;5084069;28;20213;-67
2023/08/29 07:22:23;;;;;;;2.53;2.33;;;17.10;99.90;;;;;;5075401;28;20295;-67
2023/08/29 07:24:50;;;;;;;4.80;2.10;;;17.10;99.90;;;;;;5076090;28;20266;-64
2023/08/29 07:27:16;;;;;;;1.97;1.83;;;17.10;99.90;;;;;;5077193;28;20238;-65
2023/08/29 07:29:45;;;;;;;3.50;2.20;;;17.20;99.90;;;;;;5077125;28;20826;-65
2023/08/29 07:32:12;;;;;;;2.50;2.27;;;17.20;99.90;;;;;;5076123;28;20329;-65
2023/08/29 07:34:39;;;;;;;3.33;2.20;;;17.20;99.90;;;;;;5078022;28;20717;-65
2023/08/29 07:37:07;;;;;;;2.50;2.30;;;17.20;99.90;;;;;;5077771;28;20207;-64
2023/08/29 07:39:34;;;;;;;5.20;2.53;;;17.20;99.90;;;;;;5078861;28;20227;-64
2023/08/29 07:42:02;;;;;;;3.47;2.23;;;17.30;99.90;;;;;;5077973;28;20217;-65
2023/08/29 07:44:29;;;;;;;3.67;2.43;;;17.30;99.90;;;;;;5078704;28;20204;-64
2023/08/29 07:46:58;;;;;;;3.27;2.60;;;17.40;99.90;;;;;;5065844;28;20654;-64
2023/08/29 07:49:24;;;;;;;3.23;2.70;;;17.40;99.90;;;;;;5067334;28;20199;-64
2023/08/29 07:51:52;;;;;;;3.00;2.80;;;17.50;99.90;;;;;;5072941;28;20285;-64
2023/08/29 07:54:20;;;;;;;2.97;2.40;;;17.50;99.90;;;;;;5072148;28;20253;-65
2023/08/29 07:56:47;;;;;;;3.10;2.80;;;17.60;99.90;;;;;;5072127;28;20632;-64
2023/08/29 07:59:14;;;;;;;3.50;2.70;;;17.60;99.90;;;;;;5074605;28;20606;-65
2023/08/29 08:01:41;;;;;;;9.07;2.87;;;17.60;99.90;;;;;;5066597;28;20287;-65
2023/08/29 08:04:09;;;;;;;3.10;2.90;;;17.60;99.90;;;;;;5069672;28;20207;-65
2023/08/29 08:06:36;;;;;;;4.43;3.00;;;17.70;99.90;;;;;;5080300;28;20195;-65
2023/08/29 08:09:04;;;;;;;5.10;3.40;;;17.70;99.90;;;;;;5078429;28;20294;-64
2023/08/29 08:11:31;;;;;;;3.73;3.43;;;17.70;99.90;;;;;;5075321;28;20265;-65
2023/08/29 08:13:58;;;;;;;3.90;3.50;;;17.70;99.90;;;;;;5071923;28;20204;-64
2023/08/29 08:16:25;;;;;;;4.10;3.60;;;17.80;99.90;;;;;;5067928;28;20226;-65
2023/08/29 08:18:52;;;;;;;4.60;4.20;;;17.80;99.90;;;;;;5077131;28;20238;-65
2023/08/29 08:21:21;;;;;;;4.57;4.17;;;17.90;99.90;;;;;;5075221;28;20286;-64
2023/08/29 08:23:48;;;;;;;4.27;3.93;;;17.90;99.90;;;;;;5074122;28;20215;-65
2023/08/29 08:26:15;;;;;;;3.47;3.17;;;17.90;99.90;;;;;;5076633;28;20196;-64
2023/08/29 08:28:43;;;;;;;4.07;3.50;;;17.90;99.90;;;;;;5074025;28;20290;-67
2023/08/29 08:31:10;;;;;;;3.80;3.50;;;18.00;99.90;;;;;;5075732;28;20201;-67
2023/08/29 08:33:37;;;;;;;3.50;3.23;;;17.90;99.90;;;;;;5075469;28;20199;-67
2023/08/29 08:36:04;;;;;;;3.50;3.30;;;17.90;99.90;;;;;;5074702;28;20737;-67
2023/08/29 08:38:33;;;;;;;5.00;3.30;;;18.00;99.90;;;;;;5073095;28;20286;-67
2023/08/29 08:41:00;;;;;;;3.50;3.30;;;18.00;99.90;;;;;;5066976;28;20211;-67
2023/08/29 08:43:29;;;;;;;3.77;3.30;;;18.00;99.90;;;;;;5077499;28;20206;-67
2023/08/29 08:45:56;;;;;;;4.03;3.73;;;18.00;99.90;;;;;;5069364;28;20204;-67
2023/08/29 08:48:23;;;;;;;4.50;3.50;;;18.00;99.90;;;;;;5064675;28;20575;-67
2023/08/29 08:50:51;;;;;;;4.00;3.20;;;17.90;99.90;;;;;;5064912;28;20201;-67
2023/08/29 08:53:20;;;;;;;7.70;3.97;;;17.90;99.90;;;;;;5068886;28;20290;-67
2023/08/29 08:55:48;;;;;;;4.23;3.90;;;17.90;99.90;;;;;;5072325;28;20606;-67
2023/08/29 08:58:15;;;;;;;3.40;3.10;;;17.90;99.90;;;;;;5073924;28;20313;-67
2023/08/29 09:00:42;;;;;;;3.07;2.87;;;17.80;99.90;;;;;;5074814;28;20821;-67
2023/08/29 09:03:09;;;;;;;3.20;3.00;;;17.90;99.90;;;;;;5072554;28;20293;-67
2023/08/29 09:05:36;;;;;;;4.50;3.17;;;17.90;99.90;;;;;;5078733;28;20675;-67
2023/08/29 09:08:03;;;;;;;3.27;3.07;;;18.00;99.90;;;;;;5075063;28;20587;-67
2023/08/29 09:10:33;;;;;;;3.57;3.27;;;17.90;99.90;;;;;;5079540;28;20286;-67
2023/08/29 09:13:02;;;;;;;3.23;2.93;;;17.90;99.90;;;;;;5074616;28;20621;-67
2023/08/29 09:15:29;;;;;;;4.20;3.20;;;17.90;99.90;;;;;;5074805;28;20199;-67
2023/08/29 09:17:56;;;;;;;3.37;3.00;;;17.90;99.90;;;;;;5068547;28;20284;-67
2023/08/29 09:20:29;;;;;;;2.97;2.70;;;17.90;99.90;;;;;;5073829;28;20291;-67
2023/08/29 09:22:55;;;;;;;3.90;2.93;;;18.00;99.90;;;;;;5073302;28;20188;-67
2023/08/29 09:25:25;;;;;;;3.93;3.00;;;18.00;99.90;;;;;;5076842;28;20199;-67
2023/08/29 09:27:52;;;;;;;4.20;2.90;;;18.10;99.90;;;;;;5073397;28;20202;-67
2023/08/29 09:30:21;;;;;;;3.30;3.00;;;18.00;99.90;;;;;;5074043;28;20200;-67
2023/08/29 09:32:51;;;;;;;2.30;2.10;;;18.00;99.90;;;;;;5074216;28;20282;-67
2023/08/29 09:35:24;;;;;;;2.37;2.17;;;18.00;99.90;;;;;;5073911;28;20204;-68
2023/08/29 09:37:53;;;;;;;3.47;1.97;;;18.10;99.90;;;;;;5076850;28;20195;-67
2023/08/29 09:40:20;;;;;;;2.50;2.30;;;18.20;99.90;;;;;;5071663;28;20223;-68
2023/08/29 09:42:55;;;;;;;4.30;2.30;;;18.20;99.90;;;;;;5076353;28;20226;-67
2023/08/29 09:45:23;;;;;;;2.10;2.00;;;18.30;99.90;;;;;;5063936;28;20202;-68
2023/08/29 09:47:53;;;;;;;2.40;2.20;;;18.30;99.90;;;;;;5064080;28;20729;-67
2023/08/29 09:50:21;;;;;;;2.40;2.17;;;18.40;99.90;;;;;;5064074;28;20203;-67
2023/08/29 09:52:49;;;;;;;1.97;1.87;;;18.40;99.90;;;;;;5064259;28;21018;-68
2023/08/29 09:55:20;;;;;;;2.30;2.10;;;18.50;99.90;;;;;;5070070;28;20249;-67
2023/08/29 09:57:51;;;;;;;2.67;2.30;;;18.50;99.90;;;;;;5080283;28;20298;-67
2023/08/29 10:00:20;;;;;;;2.37;1.67;;;18.50;99.90;;;;;;5071515;28;20354;-67
2023/08/29 10:02:51;;;;;;;2.07;1.87;;;18.50;99.90;;;;;;5073217;28;20285;-68
2023/08/29 10:05:22;;;;;;;1.67;1.57;;;18.50;99.90;;;;;;5074532;28;20270;-68
2023/08/29 10:07:51;;;;;;;2.13;1.70;;;18.60;99.90;;;;;;5072900;28;20226;-68
2023/08/29 10:10:20;;;;;;;3.10;1.73;;;18.60;99.90;;;;;;5075160;28;20302;-67
2023/08/29 10:12:48;;;;;;;2.00;1.90;;;18.70;99.90;;;;;;5079105;28;20284;-67
2023/08/29 10:15:16;;;;;;;2.80;1.80;;;18.80;99.90;;;;;;5073414;28;20295;-68
2023/08/29 10:17:45;;;;;;;3.03;1.80;;;18.80;99.90;;;;;;5071286;28;20211;-68
2023/08/29 10:20:14;;;;;;;2.37;1.83;;;18.80;99.90;;;;;;5079572;28;20227;-67
2023/08/29 10:22:45;;;;;;;2.27;2.07;;;18.80;99.90;;;;;;5072155;28;20215;-68
2023/08/29 10:25:14;;;;;;;2.33;2.00;;;18.80;99.90;;;;;;5077822;28;20331;-67
2023/08/29 10:27:42;;;;;;;2.57;2.17;;;18.80;99.90;;;;;;5076857;28;20205;-68
2023/08/29 10:30:10;;;;;;;2.00;1.90;;;18.80;99.90;;;;;;5079144;28;20985;-67
2023/08/29 10:32:39;;;;;;;2.87;1.90;;;18.80;99.90;;;;;;5076366;28;20203;-67
2023/08/29 10:35:07;;;;;;;1.83;1.70;;;18.70;99.90;;;;;;5080308;28;20294;-68
2023/08/29 10:37:35;;;;;;;1.90;1.80;;;18.70;99.90;;;;;;5086469;28;20303;-68
2023/08/29 10:40:11;;;;;;;3.37;1.90;;;18.70;99.90;;;;;;5078716;28;20318;-67
2023/08/29 10:42:57;;;;;;;2.43;2.20;;;18.60;99.90;;;;;;5074730;28;20297;-67
2023/08/29 10:45:43;;;;;;;2.60;2.03;;;18.50;99.90;;;;;;5068202;28;20666;-67
2023/08/29 10:48:10;;;;;;;3.37;1.80;;;18.50;99.90;;;;;;5068378;28;20290;-67
2023/08/29 10:50:38;;;;;;;2.90;2.00;;;18.50;99.90;;;;;;5069614;28;20753;-67
2023/08/29 10:53:17;;;;;;;2.20;2.10;;;18.50;99.90;;;;;;5085391;28;20581;-67
2023/08/29 10:55:59;;;;;;;3.13;2.20;;;18.50;99.90;;;;;;5077820;28;20642;-67
2023/08/29 10:58:35;;;;;;;2.63;2.43;;;18.40;99.90;;;;;;5072517;28;20299;-67
2023/08/29 11:01:04;;;;;;;1.97;1.87;;;18.40;99.90;;;;;;5069504;28;20235;-68
2023/08/29 11:03:40;;;;;;;2.30;2.10;;;18.50;99.90;;;;;;5071674;28;20203;-67
2023/08/29 11:06:08;;;;;;;2.53;2.00;;;18.50;99.90;;;;;;5084927;28;20208;-68
2023/08/29 11:08:36;;;;;;;2.77;1.93;;;18.50;99.90;;;;;;5086813;28;20282;-67
2023/08/29 11:11:17;;;;;;;4.07;2.40;;;18.50;99.90;;;;;;5077882;28;20293;-67
2023/08/29 11:13:58;;;;;;;2.20;2.00;;;18.50;99.90;;;;;;5108151;28;20214;-67
2023/08/29 11:16:25;;;;;;;2.63;2.30;;;18.50;99.90;;;;;;5075882;28;20226;-68
2023/08/29 11:19:11;;;;;;;5.43;2.40;;;18.50;99.90;;;;;;5079894;28;20286;-67
2023/08/29 11:21:38;;;;;;;2.67;2.43;;;18.70;99.90;;;;;;5075885;28;20207;-67
2023/08/29 11:24:07;;;;;;;2.63;2.27;;;18.70;99.90;;;;;;5074978;28;20227;-67
2023/08/29 11:26:36;;;;;;;2.63;2.43;;;18.70;99.90;;;;;;5075583;28;20231;-67
2023/08/29 11:29:05;;;;;;;2.57;2.37;;;18.70;99.90;;;;;;5073827;28;20207;-67
2023/08/29 11:31:32;;;;;;;2.73;2.47;;;18.70;99.90;;;;;;5073293;28;20211;-67
2023/08/29 11:33:59;;;;;;;2.57;2.47;;;18.70;99.90;;;;;;5067101;28;20619;-67
2023/08/29 11:36:33;;;;;;;4.40;2.80;;;18.80;99.90;;;;;;5067658;28;20234;-67
2023/08/29 11:38:59;;;;;;;2.63;2.43;;;18.90;99.90;;;;;;5072594;28;20727;-67
2023/08/29 11:41:29;;;;;;;3.23;2.93;;;19.00;99.90;;;;;;5077313;28;20234;-67
2023/08/29 11:43:57;;;;;;;3.13;2.93;;;19.20;99.90;;;;;;5076964;28;20211;-67
2023/08/29 11:46:24;;;;;;;3.30;3.10;;;19.30;99.90;;;;;;5066520;28;20204;-67
2023/08/29 11:48:50;;;;;;;3.83;3.00;;;19.50;99.90;;;;;;5066454;28;20658;-67
2023/08/29 11:51:18;;;;;;;4.10;3.03;;;19.60;99.90;;;;;;5074847;28;21289;-65
2023/08/29 11:53:44;;;;;;;3.67;3.20;;;19.70;99.90;;;;;;5069643;28;20298;-65
2023/08/29 11:56:12;;;;;;;4.10;3.23;;;19.70;99.90;;;;;;5075925;28;20222;-65
2023/08/29 11:58:40;;;;;;;3.57;3.27;;;19.70;99.90;;;;;;5075526;28;20203;-65
2023/08/29 12:01:08;;;;;;;4.20;3.13;;;19.60;99.90;;;;;;5076623;28;20331;-65
2023/08/29 12:03:36;;;;;;;3.60;3.17;;;19.60;99.90;;;;;;5075097;28;20215;-65
2023/08/29 12:06:05;;;;;;;3.73;2.80;;;19.50;99.90;;;;;;5072501;28;20195;-65
2023/08/29 12:08:40;;;;;;;3.20;2.93;;;19.50;99.90;;;;;;5074691;28;20249;-67
2023/08/29 12:11:07;;;;;;;3.33;3.10;;;19.50;99.90;;;;;;5066084;28;20238;-67
2023/08/29 12:13:35;;;;;;;7.77;3.10;;;19.40;99.90;;;;;;5075321;28;20242;-67
2023/08/29 12:16:04;;;;;;;4.17;2.97;;;19.40;99.90;;;;;;5075075;28;20211;-67
2023/08/29 12:18:32;;;;;;;3.07;2.87;;;19.30;99.90;;;;;;5077179;28;20750;-67
2023/08/29 12:21:13;;;;;;;3.10;2.80;;;19.30;99.90;;;;;;5075088;28;20226;-67
2023/08/29 12:23:42;;;;;;;2.67;2.57;;;19.20;99.90;;;;;;5071278;28;20328;-67
2023/08/29 12:26:08;;;;;;;2.80;2.60;;;19.20;99.90;;;;;;5072790;28;20281;-67
2023/08/29 12:28:35;;;;;;;3.87;2.87;;;19.20;99.90;;;;;;5080454;28;20224;-67
2023/08/29 12:31:04;;;;;;;2.73;2.53;;;19.20;99.90;;;;;;5074289;28;20204;-67
2023/08/29 12:33:31;;;;;;;4.03;3.73;;;19.20;99.90;;;;;;5074538;28;20195;-67
2023/08/29 12:35:58;;;;;;;3.47;2.77;;;19.30;99.90;;;;;;5074799;28;20235;-67
2023/08/29 12:38:26;;;;;;;2.70;2.50;;;19.30;99.90;;;;;;5073569;28;20323;-67
2023/08/29 12:40:53;;;;;;;2.53;2.33;;;19.20;99.90;;;;;;5076729;28;20284;-67
2023/08/29 12:43:20;;;;;;;3.20;2.27;;;19.20;99.90;;;;;;5082888;28;20202;-67
2023/08/29 12:45:47;;;;;;;2.93;2.30;;;19.20;99.90;;;;;;5078814;28;20694;-67
2023/08/29 12:48:20;;;;;;;2.50;2.40;;;19.20;99.90;;;;;;5072748;28;20221;-67
2023/08/29 12:50:47;;;;;;;3.30;2.33;;;19.20;99.90;;;;;;5070993;28;20227;-67
2023/08/29 12:53:14;;;;;;;2.70;2.50;;;19.20;99.90;;;;;;5073690;28;20221;-67